Time;durP1;ratioP1;P1;durP2;ratioP2;P2;SDS_P1;SDS_P2;PMS_P1;PMS_P2;Temp;Humidity;BMP_temperature;BMP_pressure;BME280_temperature;BME280_humidity;BME280_pressure;Samples;Min_cycle;Max_cycle;Signal;HPM_P1;HPM_P2
2022/01/22 00:00:14;;;;;;;10.95;5.43;;;0.80;99.90;;;;;;4990405;28;20191;-75
2022/01/22 00:02:40;;;;;;;15.43;5.75;;;0.80;99.90;;;;;;4990469;28;20190;-75
2022/01/22 00:05:08;;;;;;;12.13;5.40;;;0.80;99.90;;;;;;4990355;28;20213;-74
2022/01/22 00:07:34;;;;;;;16.92;5.07;;;0.90;99.90;;;;;;4990319;28;20184;-73
2022/01/22 00:10:05;;;;;;;10.25;4.78;;;0.80;99.90;;;;;;4972482;28;20228;-73
2022/01/22 00:15:04;;;;;;;12.77;5.10;;;0.90;99.90;;;;;;4990000;28;20205;-73
2022/01/22 00:17:33;;;;;;;9.02;4.45;;;0.80;99.90;;;;;;4990044;28;20293;-73
2022/01/22 00:19:58;;;;;;;13.05;4.05;;;0.80;99.90;;;;;;4989996;28;20221;-73
2022/01/22 00:22:28;;;;;;;8.13;4.60;;;0.80;99.90;;;;;;4990017;28;20235;-73
2022/01/22 00:24:57;;;;;;;5.60;4.82;;;0.90;99.90;;;;;;4990003;28;20293;-73
2022/01/22 00:27:23;;;;;;;9.73;4.72;;;0.90;99.90;;;;;;4989942;28;20182;-73
2022/01/22 00:29:49;;;;;;;5.35;4.32;;;0.90;99.90;;;;;;4988266;28;20181;-73
2022/01/22 00:32:15;;;;;;;9.73;3.97;;;0.80;99.90;;;;;;4989925;28;20194;-73
2022/01/22 00:34:40;;;;;;;14.53;5.10;;;0.90;99.90;;;;;;4989891;28;20284;-73
2022/01/22 00:37:06;;;;;;;7.67;3.90;;;0.90;99.90;;;;;;4989971;28;20209;-73
2022/01/22 00:39:34;;;;;;;9.47;4.30;;;0.80;99.90;;;;;;4990101;28;20181;-73
2022/01/22 00:41:59;;;;;;;11.48;4.20;;;0.80;99.90;;;;;;4989962;28;20182;-73
2022/01/22 00:44:25;;;;;;;9.20;3.97;;;0.90;99.90;;;;;;4989987;28;20557;-74
2022/01/22 00:46:52;;;;;;;9.20;4.28;;;0.90;99.90;;;;;;4990009;28;20181;-75
2022/01/22 00:49:18;;;;;;;6.63;4.55;;;0.90;99.90;;;;;;4990170;28;20197;-78
2022/01/22 00:51:44;;;;;;;9.00;4.22;;;1.00;99.90;;;;;;4989824;28;20206;-74
2022/01/22 00:54:09;;;;;;;6.03;4.00;;;1.00;99.90;;;;;;4989662;28;20540;-74
2022/01/22 00:56:35;;;;;;;13.07;4.43;;;1.00;99.90;;;;;;4989436;28;20220;-73
2022/01/22 00:59:01;;;;;;;4.87;3.50;;;1.00;99.90;;;;;;4989520;28;20185;-75
2022/01/22 01:01:28;;;;;;;7.27;4.20;;;1.00;99.90;;;;;;4989469;28;20397;-74
2022/01/22 01:03:57;;;;;;;9.38;4.68;;;1.00;99.90;;;;;;4987821;28;20555;-73
2022/01/22 01:06:22;;;;;;;8.30;4.40;;;1.00;99.90;;;;;;4988999;28;20819;-74
2022/01/22 01:08:48;;;;;;;7.33;4.23;;;1.00;99.90;;;;;;4989344;28;20189;-76
2022/01/22 01:11:16;;;;;;;7.87;4.90;;;1.00;99.90;;;;;;4989356;28;20210;-75
2022/01/22 01:13:45;;;;;;;10.25;4.40;;;1.00;99.90;;;;;;4987741;28;20186;-74
2022/01/22 01:16:21;;;;;;;8.25;4.50;;;1.00;99.90;;;;;;4989233;28;20289;-75
2022/01/22 01:32:41;;;;;;;6.05;4.15;;;1.10;99.90;;;;;;4989296;28;20785;-75
2022/01/22 01:35:08;;;;;;;5.47;3.60;;;1.10;99.90;;;;;;4988875;28;20572;-75
2022/01/22 01:37:34;;;;;;;5.03;3.97;;;1.10;99.90;;;;;;4989037;28;20183;-75
2022/01/22 01:40:05;;;;;;;7.50;4.25;;;1.00;99.90;;;;;;4988987;28;20174;-75
2022/01/22 01:45:04;;;;;;;8.50;4.30;;;1.00;99.90;;;;;;4988880;28;20203;-74
2022/01/22 01:47:29;;;;;;;7.88;4.22;;;1.00;99.90;;;;;;4987481;28;20195;-75
2022/01/22 01:49:55;;;;;;;5.43;4.00;;;1.10;99.90;;;;;;4989024;28;20705;-74
2022/01/22 01:52:30;;;;;;;10.73;4.23;;;1.10;99.90;;;;;;4989006;28;20201;-73
2022/01/22 01:55:03;;;;;;;11.57;4.15;;;1.10;99.90;;;;;;4988549;28;20619;-73
2022/01/22 01:57:42;;;;;;;4.53;3.75;;;1.00;99.90;;;;;;4988829;28;20182;-73
2022/01/22 02:00:21;;;;;;;11.50;4.65;;;1.00;99.90;;;;;;4989069;28;20565;-73
2022/01/22 02:02:48;;;;;;;9.10;4.32;;;1.00;99.90;;;;;;4989118;28;20190;-73
2022/01/22 02:05:15;;;;;;;12.23;4.20;;;1.00;99.90;;;;;;4989116;28;20202;-73
2022/01/22 02:07:43;;;;;;;10.40;4.65;;;1.00;99.90;;;;;;4988898;28;20190;-73
2022/01/22 02:10:13;;;;;;;5.30;4.60;;;1.00;99.90;;;;;;4989427;28;20182;-73
2022/01/22 02:23:39;;;;;;;10.57;4.68;;;1.10;99.90;;;;;;4993616;28;20220;-74
2022/01/22 02:26:07;;;;;;;9.65;4.60;;;1.00;99.90;;;;;;4991595;28;20208;-73
2022/01/22 02:28:33;;;;;;;9.48;4.68;;;1.10;99.90;;;;;;4992788;28;20182;-74
2022/01/22 02:31:09;;;;;;;6.53;4.43;;;1.10;99.90;;;;;;4992827;28;20209;-73
2022/01/22 02:33:48;;;;;;;6.85;3.85;;;1.10;99.90;;;;;;4992843;28;20174;-74
2022/01/22 02:36:29;;;;;;;12.18;5.00;;;1.10;99.90;;;;;;4992629;28;20229;-73
2022/01/22 02:39:04;;;;;;;10.95;5.10;;;1.10;99.90;;;;;;4992318;28;20667;-75
2022/01/22 02:41:30;;;;;;;7.75;4.40;;;1.10;99.90;;;;;;4990964;28;20186;-73
2022/01/22 02:43:56;;;;;;;6.70;4.73;;;1.20;99.90;;;;;;4992251;28;20218;-73
2022/01/22 02:46:26;;;;;;;11.25;4.90;;;1.10;99.90;;;;;;4992101;28;20221;-73
2022/01/22 02:48:54;;;;;;;8.07;4.80;;;1.10;99.90;;;;;;4992109;28;20182;-73
2022/01/22 02:51:24;;;;;;;5.72;4.70;;;1.10;99.90;;;;;;4992004;28;20223;-73
2022/01/22 02:53:53;;;;;;;8.02;5.22;;;1.10;99.90;;;;;;4992104;28;20198;-73
2022/01/22 02:56:20;;;;;;;8.10;4.65;;;1.10;99.90;;;;;;4991939;28;20616;-73
2022/01/22 02:58:46;;;;;;;7.75;4.25;;;1.10;99.90;;;;;;4990559;28;20290;-73
2022/01/22 03:01:15;;;;;;;5.67;4.47;;;1.20;99.90;;;;;;4992071;28;20266;-73
2022/01/22 03:03:41;;;;;;;5.07;4.40;;;1.20;99.90;;;;;;4991881;28;20182;-73
2022/01/22 03:06:07;;;;;;;5.47;4.38;;;1.20;99.90;;;;;;4991779;28;20214;-73
2022/01/22 03:08:33;;;;;;;9.13;4.90;;;1.20;99.90;;;;;;4991595;28;20189;-73
2022/01/22 03:11:03;;;;;;;7.23;4.13;;;1.20;99.90;;;;;;4991392;28;20468;-73
2022/01/22 03:16:06;;;;;;;7.97;4.35;;;1.20;99.90;;;;;;4991338;28;20207;-73
2022/01/22 03:29:11;;;;;;;4.40;4.00;;;1.40;99.90;;;;;;4990467;28;20216;-74
2022/01/22 03:31:37;;;;;;;4.13;3.50;;;1.40;99.90;;;;;;4991130;28;20213;-73
2022/01/22 03:34:04;;;;;;;5.55;3.80;;;1.30;99.90;;;;;;4991035;28;20743;-73
2022/01/22 03:36:33;;;;;;;5.97;3.67;;;1.30;99.90;;;;;;4990934;28;20211;-73
2022/01/22 03:38:58;;;;;;;8.15;3.88;;;1.30;99.90;;;;;;4989524;28;20277;-74
2022/01/22 03:41:24;;;;;;;8.63;3.30;;;1.30;99.90;;;;;;4990889;28;20282;-73
2022/01/22 03:43:51;;;;;;;7.10;3.60;;;1.30;99.90;;;;;;4990801;28;20193;-74
2022/01/22 03:46:17;;;;;;;3.83;3.22;;;1.30;99.90;;;;;;4990721;28;20210;-74
2022/01/22 03:48:44;;;;;;;5.53;3.67;;;1.30;99.90;;;;;;4990517;28;20195;-74
2022/01/22 03:51:10;;;;;;;8.30;3.40;;;1.40;99.90;;;;;;4990429;28;20249;-73
2022/01/22 03:53:35;;;;;;;5.63;3.20;;;1.40;99.90;;;;;;4990472;28;20201;-73
2022/01/22 03:56:06;;;;;;;3.43;3.10;;;1.40;99.90;;;;;;4989052;28;20456;-73
2022/01/22 03:58:39;;;;;;;5.03;3.03;;;1.40;99.90;;;;;;4990510;28;20691;-73
2022/01/22 04:03:44;;;;;;;5.85;3.13;;;1.50;99.90;;;;;;4990546;28;20621;-73
2022/01/22 04:06:36;;;;;;;6.15;2.97;;;1.50;99.90;;;;;;4990653;28;20213;-73
2022/01/22 04:08:58;;;;;;;4.68;3.22;;;1.40;99.90;;;;;;4990289;28;20194;-73
2022/01/22 04:11:24;;;;;;;4.13;2.95;;;1.40;99.90;;;;;;4990289;28;21022;-73
2022/01/22 04:13:52;;;;;;;3.42;3.13;;;1.40;99.90;;;;;;4988736;28;20182;-76
2022/01/22 04:16:18;;;;;;;3.40;2.88;;;1.40;99.90;;;;;;4990027;28;20230;-75
2022/01/22 04:27:06;;;;;;;5.28;3.70;;;1.40;99.90;;;;;;4990174;28;20232;-74
2022/01/22 04:29:33;;;;;;;4.15;3.80;;;1.40;99.90;;;;;;4989922;28;20531;-75
2022/01/22 04:31:58;;;;;;;3.95;3.03;;;1.30;99.90;;;;;;4989719;28;20591;-75
2022/01/22 04:34:24;;;;;;;3.50;3.20;;;1.40;99.90;;;;;;4989828;28;20189;-74
2022/01/22 04:36:49;;;;;;;3.97;3.23;;;1.40;99.90;;;;;;4988499;28;20202;-73
2022/01/22 04:39:18;;;;;;;6.50;3.60;;;1.40;99.90;;;;;;4989846;28;20186;-73
2022/01/22 04:41:43;;;;;;;3.80;3.05;;;1.40;99.90;;;;;;4989877;28;20202;-74
2022/01/22 04:44:09;;;;;;;6.40;3.70;;;1.50;99.90;;;;;;4989972;28;20190;-74
2022/01/22 04:55:02;;;;;;;4.05;3.67;;;1.50;99.90;;;;;;4989937;28;20246;-73
2022/01/22 04:57:46;;;;;;;7.78;4.18;;;1.60;99.90;;;;;;4989765;28;20212;-73
2022/01/22 05:00:14;;;;;;;9.77;4.05;;;1.60;99.90;;;;;;4989756;28;20193;-73
2022/01/22 05:02:40;;;;;;;7.68;3.90;;;1.50;99.90;;;;;;4989562;28;20280;-73
2022/01/22 05:05:07;;;;;;;7.13;3.83;;;1.60;99.90;;;;;;4989537;28;20288;-73
2022/01/22 05:07:33;;;;;;;6.07;3.67;;;1.60;99.90;;;;;;4989547;28;20194;-73
2022/01/22 05:10:01;;;;;;;5.20;2.97;;;1.60;99.90;;;;;;4989476;28;20561;-73
2022/01/22 05:12:27;;;;;;;7.28;3.60;;;1.60;99.90;;;;;;4988101;28;20718;-73
2022/01/22 05:14:52;;;;;;;3.43;3.13;;;1.60;99.90;;;;;;4987910;28;20252;-74
2022/01/22 05:17:19;;;;;;;5.40;4.27;;;1.60;99.90;;;;;;4989496;28;20604;-74
2022/01/22 05:19:51;;;;;;;4.90;3.90;;;1.70;99.90;;;;;;4989284;28;20316;-74
2022/01/22 05:24:53;;;;;;;9.57;4.03;;;1.60;99.90;;;;;;4991435;28;20216;-77
2022/01/22 05:30:11;;;;;;;5.30;3.70;;;1.60;99.90;;;;;;4989626;28;20204;-76
2022/01/22 05:32:54;;;;;;;4.80;3.20;;;1.50;99.90;;;;;;4989099;28;20169;-78
2022/01/22 05:38:07;;;;;;;9.82;3.72;;;1.50;99.90;;;;;;4989823;28;20719;-77
2022/01/22 05:40:33;;;;;;;7.32;4.88;;;1.50;99.90;;;;;;4990024;28;20238;-77
2022/01/22 05:42:59;;;;;;;6.72;4.68;;;1.50;99.90;;;;;;4989591;28;20191;-76
2022/01/22 05:45:25;;;;;;;8.90;4.30;;;1.50;99.90;;;;;;4989429;28;20213;-77
2022/01/22 05:47:50;;;;;;;15.73;4.87;;;1.50;99.90;;;;;;4988065;28;20921;-76
2022/01/22 05:50:49;;;;;;;9.40;5.27;;;1.50;99.90;;;;;;4989411;28;20268;-77
2022/01/22 06:01:17;;;;;;;9.93;5.40;;;1.50;99.90;;;;;;4993158;28;20205;-75
2022/01/22 06:03:45;;;;;;;10.70;6.50;;;1.60;99.90;;;;;;4991573;28;20198;-75
2022/01/22 06:06:11;;;;;;;7.68;5.10;;;1.60;99.90;;;;;;4992626;28;20195;-76
2022/01/22 06:08:46;;;;;;;8.70;6.32;;;1.60;99.90;;;;;;4992748;28;20191;-75
2022/01/22 06:11:20;;;;;;;9.80;6.55;;;1.50;99.90;;;;;;4992608;28;20198;-74
2022/01/22 06:13:46;;;;;;;14.35;6.60;;;1.60;99.90;;;;;;4992831;28;20225;-74
2022/01/22 06:16:20;;;;;;;9.38;6.18;;;1.60;99.90;;;;;;4992701;28;20217;-75
2022/01/22 06:18:48;;;;;;;9.13;6.63;;;1.70;99.90;;;;;;4992779;28;20183;-75
2022/01/22 06:21:14;;;;;;;7.95;5.65;;;1.70;99.90;;;;;;4992705;28;20686;-75
2022/01/22 06:23:41;;;;;;;9.75;6.15;;;1.60;99.90;;;;;;4992867;28;20191;-75
2022/01/22 06:26:07;;;;;;;15.93;6.15;;;1.80;99.90;;;;;;4993111;28;20234;-75
2022/01/22 06:28:34;;;;;;;13.45;5.75;;;1.50;99.90;;;;;;4993280;28;20253;-75
2022/01/22 06:31:01;;;;;;;10.95;6.80;;;1.60;99.90;;;;;;4993793;28;20310;-78
2022/01/22 06:33:27;;;;;;;16.77;7.22;;;1.60;99.90;;;;;;4994079;28;20210;-77
2022/01/22 06:35:53;;;;;;;14.20;7.25;;;1.70;99.90;;;;;;4994197;28;20199;-78
2022/01/22 06:38:19;;;;;;;14.87;6.30;;;1.60;99.90;;;;;;4993842;28;20189;-77
2022/01/22 06:43:30;;;;;;;15.55;7.00;;;1.60;99.90;;;;;;4993670;28;20180;-77
2022/01/22 06:45:57;;;;;;;13.85;6.80;;;1.60;99.90;;;;;;4992911;28;20210;-77
2022/01/22 06:48:26;;;;;;;12.05;5.95;;;1.80;99.90;;;;;;4975540;28;20206;-77
2022/01/22 06:50:52;;;;;;;9.80;6.88;;;1.60;99.90;;;;;;4992923;28;20198;-77
2022/01/22 06:53:18;;;;;;;7.68;6.10;;;1.60;99.90;;;;;;4992845;28;20198;-77
2022/01/22 06:56:06;;;;;;;14.83;7.50;;;1.70;99.90;;;;;;4975161;28;20837;-77
2022/01/22 06:58:30;;;;;;;15.00;7.13;;;1.70;99.90;;;;;;4991055;28;20202;-76
2022/01/22 07:00:55;;;;;;;8.07;6.00;;;1.70;99.90;;;;;;4991201;28;20186;-77
2022/01/22 07:03:21;;;;;;;15.93;6.60;;;1.60;99.90;;;;;;4991167;28;20266;-77
2022/01/22 07:05:47;;;;;;;11.82;7.38;;;1.60;99.90;;;;;;4992260;28;20289;-77
2022/01/22 07:08:13;;;;;;;17.40;7.17;;;1.60;99.90;;;;;;4992200;28;20695;-77
2022/01/22 07:10:39;;;;;;;11.37;7.97;;;1.60;99.90;;;;;;4991957;28;20693;-77
2022/01/22 07:13:04;;;;;;;9.60;7.00;;;1.70;99.90;;;;;;4990389;28;20189;-77
2022/01/22 07:15:30;;;;;;;11.00;7.10;;;1.70;99.90;;;;;;4991862;28;21259;-77
2022/01/22 07:17:56;;;;;;;12.67;6.67;;;1.70;99.90;;;;;;4990684;28;20178;-78
2022/01/22 07:20:30;;;;;;;7.57;6.53;;;1.70;99.90;;;;;;4992419;28;20190;-76
2022/01/22 07:23:13;;;;;;;14.45;6.90;;;1.70;99.90;;;;;;4992199;28;20404;-77
2022/01/22 07:25:39;;;;;;;11.20;6.90;;;1.70;99.90;;;;;;4990817;28;20756;-77
2022/01/22 07:28:06;;;;;;;12.95;7.40;;;1.80;99.90;;;;;;4990654;28;20272;-76
2022/01/22 07:30:31;;;;;;;11.60;6.18;;;1.80;99.90;;;;;;4991788;28;20210;-77
2022/01/22 07:32:57;;;;;;;9.87;6.90;;;1.80;99.90;;;;;;4991905;28;20208;-78
2022/01/22 07:35:23;;;;;;;13.07;7.80;;;1.90;99.90;;;;;;4991742;28;20441;-78
2022/01/22 07:37:49;;;;;;;10.17;6.67;;;1.90;99.90;;;;;;4990315;28;20241;-78
2022/01/22 07:40:15;;;;;;;11.70;6.60;;;1.80;99.90;;;;;;4991888;28;20210;-78
2022/01/22 07:42:41;;;;;;;12.15;6.50;;;1.80;99.90;;;;;;4991951;28;20184;-77
2022/01/22 07:45:09;;;;;;;13.43;7.75;;;1.80;99.90;;;;;;4991630;28;20210;-78
2022/01/22 07:47:35;;;;;;;11.23;7.50;;;1.80;99.90;;;;;;4991772;28;20956;-77
2022/01/22 07:50:01;;;;;;;12.63;7.30;;;1.80;99.90;;;;;;4991440;28;20202;-77
2022/01/22 07:52:28;;;;;;;11.55;7.45;;;1.80;99.90;;;;;;4990851;28;20224;-77
2022/01/22 07:54:53;;;;;;;15.90;8.63;;;1.80;99.90;;;;;;4990778;28;20206;-77
2022/01/22 07:57:19;;;;;;;19.53;9.07;;;1.80;99.90;;;;;;4990662;28;20274;-77
2022/01/22 07:59:44;;;;;;;13.50;8.40;;;1.70;99.90;;;;;;4990800;28;20186;-77
2022/01/22 08:02:13;;;;;;;20.87;9.40;;;1.90;99.90;;;;;;4973331;28;20182;-77
2022/01/22 08:04:39;;;;;;;16.00;7.50;;;1.90;99.90;;;;;;4990704;28;20261;-77
2022/01/22 08:07:05;;;;;;;10.63;7.17;;;1.90;99.90;;;;;;4991007;28;20220;-77
2022/01/22 08:09:31;;;;;;;18.90;8.32;;;1.90;99.90;;;;;;4991264;28;20191;-77
2022/01/22 08:11:59;;;;;;;16.23;7.72;;;1.90;99.90;;;;;;4991712;28;20270;-78
2022/01/22 08:14:25;;;;;;;18.83;9.82;;;1.90;99.90;;;;;;4991480;28;20175;-77
2022/01/22 08:16:50;;;;;;;14.13;9.33;;;1.90;99.90;;;;;;4992043;28;20279;-77
2022/01/22 08:19:17;;;;;;;18.63;8.53;;;2.00;99.90;;;;;;4992326;28;20440;-76
2022/01/22 08:21:46;;;;;;;22.13;9.80;;;1.90;99.90;;;;;;4991995;28;20188;-77
2022/01/22 08:24:14;;;;;;;18.88;9.70;;;2.00;99.90;;;;;;4990758;28;20234;-77
2022/01/22 08:26:46;;;;;;;14.60;8.77;;;2.00;99.90;;;;;;4988500;28;20203;-78
2022/01/22 08:29:12;;;;;;;26.20;9.50;;;2.00;99.90;;;;;;4989966;28;20190;-77
2022/01/22 08:31:47;;;;;;;18.27;8.97;;;2.00;99.90;;;;;;5000775;28;20227;-77
2022/01/22 08:36:57;;;;;;;14.30;8.75;;;1.90;99.90;;;;;;4989807;28;20194;-78
2022/01/22 08:39:23;;;;;;;19.77;10.30;;;1.90;99.90;;;;;;4987720;28;20186;-78
2022/01/22 08:41:48;;;;;;;19.90;10.13;;;1.90;99.90;;;;;;4988716;28;20658;-77
2022/01/22 08:44:14;;;;;;;17.07;10.10;;;1.90;99.90;;;;;;4987359;28;20182;-77
2022/01/22 08:46:40;;;;;;;16.60;10.20;;;1.90;99.90;;;;;;4988965;28;20277;-77
2022/01/22 08:49:07;;;;;;;18.70;9.60;;;2.00;99.90;;;;;;4987273;28;20201;-77
2022/01/22 08:51:34;;;;;;;17.90;11.57;;;2.00;99.90;;;;;;4986904;28;20497;-77
2022/01/22 08:54:03;;;;;;;26.13;10.35;;;2.10;99.90;;;;;;4988254;28;20222;-77
2022/01/22 08:56:29;;;;;;;23.92;11.02;;;1.90;99.90;;;;;;4988251;28;20194;-77
2022/01/22 08:58:56;;;;;;;17.83;10.70;;;1.90;99.90;;;;;;4988525;28;20265;-77
2022/01/22 09:01:23;;;;;;;20.90;9.85;;;2.00;99.90;;;;;;4987007;28;20277;-76
2022/01/22 09:03:50;;;;;;;21.40;11.27;;;1.90;99.90;;;;;;4987350;28;20194;-77
2022/01/22 09:06:17;;;;;;;24.92;10.93;;;2.10;99.90;;;;;;4987012;28;20245;-77
2022/01/22 09:08:45;;;;;;;14.65;9.95;;;2.00;99.90;;;;;;4989083;28;20186;-77
2022/01/22 09:11:11;;;;;;;20.05;10.30;;;1.90;99.90;;;;;;4987777;28;20213;-78
2022/01/22 09:13:37;;;;;;;17.90;10.50;;;2.00;99.90;;;;;;4989323;28;20626;-77
2022/01/22 09:16:03;;;;;;;16.52;11.13;;;2.10;99.90;;;;;;4989243;28;20209;-77
2022/01/22 09:18:29;;;;;;;19.30;10.68;;;2.10;99.90;;;;;;4988461;28;20563;-77
2022/01/22 09:21:02;;;;;;;20.77;11.07;;;2.10;99.90;;;;;;4988804;28;20186;-77
2022/01/22 09:23:29;;;;;;;19.58;9.95;;;2.10;99.90;;;;;;4988522;28;20855;-77
2022/01/22 09:25:56;;;;;;;19.80;11.80;;;2.10;99.90;;;;;;4987813;28;20244;-76
2022/01/22 09:28:22;;;;;;;16.25;9.75;;;2.10;99.90;;;;;;4988316;28;20199;-77
2022/01/22 09:30:48;;;;;;;20.73;10.00;;;2.10;99.90;;;;;;4986702;28;20223;-77
2022/01/22 09:33:14;;;;;;;20.70;10.70;;;2.10;99.90;;;;;;4988298;28;20187;-77
2022/01/22 09:35:40;;;;;;;15.65;10.45;;;2.10;99.90;;;;;;4986801;28;20440;-77
2022/01/22 09:38:06;;;;;;;19.70;10.70;;;2.10;99.90;;;;;;4988059;28;20193;-77
2022/01/22 09:40:32;;;;;;;19.60;10.90;;;2.10;99.90;;;;;;4986783;28;20243;-77
2022/01/22 09:42:59;;;;;;;19.15;12.27;;;2.10;99.90;;;;;;4988342;28;20430;-77
2022/01/22 09:45:29;;;;;;;19.67;11.40;;;2.10;99.90;;;;;;4971074;28;20217;-76
2022/01/22 09:47:58;;;;;;;24.73;12.02;;;2.00;99.90;;;;;;4988315;28;20193;-77
2022/01/22 09:50:25;;;;;;;17.70;10.50;;;2.00;99.90;;;;;;4988177;28;20219;-77
2022/01/22 09:52:51;;;;;;;26.65;11.93;;;2.00;99.90;;;;;;4970466;28;20648;-77
2022/01/22 09:55:18;;;;;;;21.92;12.63;;;2.10;99.90;;;;;;4988634;28;20446;-77
2022/01/22 09:57:44;;;;;;;19.90;11.65;;;2.10;99.90;;;;;;4988208;28;20253;-77
2022/01/22 10:00:13;;;;;;;21.88;12.63;;;2.10;99.90;;;;;;4988606;28;20586;-77
2022/01/22 10:02:45;;;;;;;24.63;12.80;;;2.10;99.90;;;;;;4988436;28;20535;-74
2022/01/22 10:05:33;;;;;;;19.67;11.60;;;2.10;99.90;;;;;;4987835;28;20204;-72
2022/01/22 10:08:21;;;;;;;24.17;12.18;;;2.10;99.90;;;;;;4987755;28;20241;-74
2022/01/22 10:10:47;;;;;;;20.27;11.68;;;2.10;99.90;;;;;;4987449;28;20303;-74
2022/01/22 10:13:14;;;;;;;24.55;11.80;;;2.10;99.90;;;;;;4987584;28;20229;-74
2022/01/22 10:15:40;;;;;;;21.63;10.73;;;2.00;99.90;;;;;;4986327;28;20572;-73
2022/01/22 10:18:07;;;;;;;23.50;10.77;;;2.10;99.90;;;;;;4987431;28;20645;-73
2022/01/22 10:20:39;;;;;;;20.95;11.70;;;2.20;99.90;;;;;;4987429;28;20183;-73
2022/01/22 10:23:10;;;;;;;23.95;12.10;;;2.20;99.90;;;;;;4987467;28;20757;-72
2022/01/22 10:25:42;;;;;;;24.88;12.50;;;2.30;99.90;;;;;;4987652;28;20214;-72
2022/01/22 10:28:11;;;;;;;22.65;12.52;;;2.30;99.90;;;;;;4986182;28;20192;-74
2022/01/22 10:30:39;;;;;;;22.30;11.85;;;2.30;99.90;;;;;;4987868;28;20562;-76
2022/01/22 10:35:45;;;;;;;18.95;11.95;;;2.30;99.90;;;;;;4987189;28;20739;-73
2022/01/22 10:38:11;;;;;;;18.15;10.85;;;2.50;99.90;;;;;;4990161;28;20189;-73
2022/01/22 10:40:39;;;;;;;22.65;12.23;;;2.50;99.90;;;;;;4990086;28;20658;-73
2022/01/22 10:43:21;;;;;;;19.17;10.40;;;2.40;99.90;;;;;;4991356;28;20279;-76
2022/01/22 10:48:44;;;;;;;24.55;11.50;;;2.30;99.90;;;;;;4991251;28;20567;-75
2022/01/22 10:51:11;;;;;;;21.10;11.35;;;2.30;99.90;;;;;;4991135;28;20215;-75
2022/01/22 10:53:52;;;;;;;19.40;10.95;;;2.30;99.90;;;;;;4989519;28;20206;-73
2022/01/22 10:56:20;;;;;;;19.42;11.63;;;2.30;99.90;;;;;;4991047;28;20228;-74
2022/01/22 10:59:05;;;;;;;20.92;12.38;;;2.30;99.90;;;;;;4992074;28;20210;-73
2022/01/22 11:01:43;;;;;;;19.48;11.20;;;2.30;99.90;;;;;;4991675;28;20211;-74
2022/01/22 11:04:18;;;;;;;18.42;10.93;;;2.40;99.90;;;;;;4991005;28;20183;-75
2022/01/22 11:06:53;;;;;;;22.25;12.07;;;2.40;99.90;;;;;;4990767;28;20217;-73
2022/01/22 11:09:20;;;;;;;21.73;12.00;;;2.30;99.90;;;;;;4990812;28;20557;-73
2022/01/22 11:11:46;;;;;;;20.08;11.68;;;2.40;99.90;;;;;;4990751;28;20642;-74
2022/01/22 11:14:13;;;;;;;23.63;13.48;;;2.40;99.90;;;;;;4990782;28;20183;-74
2022/01/22 11:16:41;;;;;;;21.23;11.73;;;2.40;99.90;;;;;;4992502;28;20207;-79
2022/01/22 11:19:11;;;;;;;21.27;11.63;;;2.40;99.90;;;;;;4992337;28;20186;-78
2022/01/22 11:21:41;;;;;;;25.38;11.45;;;2.40;99.90;;;;;;4990741;28;20219;-78
2022/01/22 11:24:09;;;;;;;24.02;12.25;;;2.50;99.90;;;;;;4974783;28;20205;-78
2022/01/22 11:26:38;;;;;;;19.08;12.70;;;2.40;99.90;;;;;;4989700;28;20232;-77
2022/01/22 11:29:04;;;;;;;24.70;13.02;;;2.40;99.90;;;;;;4989314;28;20306;-78
2022/01/22 11:31:31;;;;;;;21.42;12.82;;;2.50;99.90;;;;;;4989480;28;20223;-78
2022/01/22 11:33:59;;;;;;;19.98;13.15;;;2.60;99.90;;;;;;4991180;28;20442;-77
2022/01/22 11:36:31;;;;;;;26.25;13.10;;;2.70;99.90;;;;;;4990832;28;20207;-76
2022/01/22 11:38:58;;;;;;;25.92;12.57;;;2.80;99.90;;;;;;4989933;28;20601;-77
2022/01/22 11:41:25;;;;;;;25.75;12.50;;;2.80;99.90;;;;;;4989334;28;20219;-76
2022/01/22 11:44:16;;;;;;;21.52;13.50;;;2.80;99.90;;;;;;4991084;28;20203;-76
2022/01/22 11:46:53;;;;;;;24.55;12.30;;;2.80;99.90;;;;;;4990574;28;20214;-77
2022/01/22 11:49:25;;;;;;;22.13;12.40;;;2.80;99.90;;;;;;4990603;28;20985;-77
2022/01/22 11:52:14;;;;;;;23.30;13.27;;;2.90;99.90;;;;;;4988920;28;20219;-77
2022/01/22 11:54:53;;;;;;;20.70;12.05;;;2.80;99.90;;;;;;4971075;28;20870;-77
2022/01/22 11:57:20;;;;;;;26.00;12.15;;;2.80;99.90;;;;;;4990850;28;20680;-78
2022/01/22 11:59:46;;;;;;;19.70;12.35;;;2.90;99.90;;;;;;4991723;28;20185;-77
2022/01/22 12:02:17;;;;;;;21.73;11.20;;;2.80;99.90;;;;;;4989973;28;20233;-77
2022/01/22 12:04:44;;;;;;;17.23;11.70;;;2.60;99.90;;;;;;4991455;28;20191;-78
2022/01/22 12:07:14;;;;;;;27.27;12.50;;;2.70;99.90;;;;;;4991277;28;20210;-78
2022/01/22 12:14:25;;;;;;;20.33;12.23;;;2.70;99.90;;;;;;4990487;28;20187;-77
2022/01/22 12:16:15;;;;;;;20.17;12.55;;;2.70;99.90;;;;;;4990849;28;20210;-78
2022/01/22 12:18:55;;;;;;;22.83;13.65;;;2.80;99.90;;;;;;4990754;28;20215;-78
2022/01/22 12:21:33;;;;;;;22.20;13.40;;;2.80;99.90;;;;;;4988913;28;20197;-78
2022/01/22 12:24:05;;;;;;;23.20;12.18;;;2.80;99.90;;;;;;4988656;28;20189;-77
2022/01/22 12:26:38;;;;;;;27.38;12.40;;;2.70;99.90;;;;;;4989772;28;20579;-76
2022/01/22 12:29:27;;;;;;;20.55;12.73;;;2.70;99.90;;;;;;4989939;28;20237;-76
2022/01/22 12:32:17;;;;;;;22.15;11.90;;;2.70;99.90;;;;;;4990457;28;20280;-77
2022/01/22 12:34:57;;;;;;;25.40;13.00;;;2.80;99.90;;;;;;4990491;28;20197;-76
2022/01/22 12:37:23;;;;;;;24.35;12.52;;;2.70;99.90;;;;;;4990510;28;20950;-78
2022/01/22 12:39:53;;;;;;;19.77;11.73;;;2.70;99.90;;;;;;4988280;28;20191;-77
2022/01/22 12:42:29;;;;;;;18.67;11.32;;;2.80;99.90;;;;;;4972610;28;20182;-78
2022/01/22 12:45:00;;;;;;;20.88;11.55;;;2.70;99.90;;;;;;4989478;28;20252;-77
2022/01/22 12:47:27;;;;;;;14.45;10.82;;;2.60;99.90;;;;;;4989064;28;20244;-77
2022/01/22 12:50:01;;;;;;;15.60;11.27;;;2.70;99.90;;;;;;4988521;28;20210;-78
2022/01/22 12:52:27;;;;;;;18.55;9.68;;;2.70;99.90;;;;;;4988665;28;20227;-78
2022/01/22 12:54:58;;;;;;;19.52;11.13;;;2.80;99.90;;;;;;4989352;28;20227;-78
2022/01/22 12:57:25;;;;;;;21.10;11.88;;;2.80;99.90;;;;;;4972947;28;20183;-78
2022/01/22 13:00:12;;;;;;;27.10;12.57;;;2.80;99.90;;;;;;4988048;28;20290;-77
2022/01/22 13:02:57;;;;;;;16.20;10.25;;;2.80;99.90;;;;;;4987631;28;20730;-77
2022/01/22 13:05:25;;;;;;;17.17;10.38;;;2.90;99.90;;;;;;4989384;28;21011;-78
2022/01/22 13:07:55;;;;;;;16.20;10.30;;;2.80;99.90;;;;;;4989083;28;20264;-78
2022/01/22 13:10:32;;;;;;;21.40;11.20;;;2.80;99.90;;;;;;4989007;28;20279;-78
2022/01/22 13:12:59;;;;;;;20.55;11.50;;;2.80;99.90;;;;;;4988989;28;20217;-78
2022/01/22 13:15:27;;;;;;;26.23;12.35;;;2.80;99.90;;;;;;4987636;28;20280;-77
2022/01/22 13:17:59;;;;;;;22.15;11.77;;;2.80;99.90;;;;;;4987416;28;20174;-78
2022/01/22 13:20:27;;;;;;;19.60;11.80;;;2.70;99.90;;;;;;4987550;28;20216;-78
2022/01/22 13:22:56;;;;;;;28.50;13.07;;;2.70;99.90;;;;;;4989122;28;20188;-78
2022/01/22 13:25:22;;;;;;;21.20;12.35;;;2.80;99.90;;;;;;4989138;28;20638;-77
2022/01/22 13:28:02;;;;;;;18.37;12.23;;;2.80;99.90;;;;;;4988622;28;20294;-77
2022/01/22 13:30:37;;;;;;;20.90;11.32;;;2.80;99.90;;;;;;4988839;28;20514;-78
2022/01/22 13:33:17;;;;;;;23.88;11.35;;;2.70;99.90;;;;;;4987633;28;20183;-78
2022/01/22 13:49:19;;;;;;;21.20;11.68;;;2.80;99.90;;;;;;4989345;28;20185;-77
2022/01/22 13:51:46;;;;;;;18.30;11.00;;;2.90;99.90;;;;;;4987295;28;20310;-77
2022/01/22 13:54:12;;;;;;;21.70;11.05;;;2.90;99.90;;;;;;4988715;28;20213;-78
2022/01/22 13:56:55;;;;;;;22.90;12.10;;;2.80;99.90;;;;;;4988408;28;20206;-78
2022/01/22 13:59:28;;;;;;;24.00;11.25;;;3.00;99.90;;;;;;4988820;28;20729;-78
2022/01/22 14:02:34;;;;;;;25.17;11.50;;;3.00;99.90;;;;;;4988980;28;20203;-77
2022/01/22 14:04:59;;;;;;;21.27;10.68;;;3.00;99.90;;;;;;4989362;28;20223;-77
2022/01/22 14:07:31;;;;;;;23.27;12.13;;;2.90;99.90;;;;;;4988220;28;20191;-78
2022/01/22 14:10:07;;;;;;;15.73;11.35;;;3.00;99.90;;;;;;4989622;28;20542;-77
2022/01/22 14:13:10;;;;;;;14.45;10.05;;;3.10;99.90;;;;;;4991439;28;20215;-78
2022/01/22 14:15:42;;;;;;;21.27;11.15;;;3.00;99.90;;;;;;4993155;28;20704;-77
2022/01/22 14:18:20;;;;;;;18.33;10.18;;;3.10;99.90;;;;;;4991938;28;20203;-77
2022/01/22 14:20:50;;;;;;;16.40;10.05;;;3.10;99.90;;;;;;4976144;28;20197;-78
2022/01/22 14:23:17;;;;;;;19.77;11.05;;;3.10;99.90;;;;;;4993074;28;20181;-78
2022/01/22 14:26:08;;;;;;;21.63;11.60;;;3.00;99.90;;;;;;4993045;28;20615;-77
2022/01/22 14:28:41;;;;;;;16.58;10.52;;;3.00;99.90;;;;;;4993078;28;20237;-77
2022/01/22 14:31:27;;;;;;;20.55;10.60;;;3.10;99.90;;;;;;4992568;28;20219;-77
2022/01/22 14:34:04;;;;;;;18.60;11.35;;;3.00;99.90;;;;;;4992609;28;20185;-78
2022/01/22 14:36:33;;;;;;;17.83;11.15;;;3.00;99.90;;;;;;4992191;28;20304;-77
2022/01/22 14:44:53;;;;;;;24.05;10.95;;;3.00;99.90;;;;;;4992577;28;20269;-78
2022/01/22 14:47:27;;;;;;;20.50;11.40;;;3.10;99.90;;;;;;4992963;28;20246;-78
2022/01/22 14:50:06;;;;;;;16.58;9.85;;;3.20;99.90;;;;;;4993487;28;20555;-78